sensor_id;sensor_type;location;lat;lon;timestamp;pressure;altitude;pressure_sealevel;temperature;humidity
20160;BME280;50187;50.492;12.134;2023-04-26T00:00:29;97460.19;;;20.38;35.28
20160;BME280;50187;50.492;12.134;2023-04-26T00:02:57;97456.13;;;20.34;35.56
20160;BME280;50187;50.492;12.134;2023-04-26T00:05:25;97465.59;;;20.38;35.26
20160;BME280;50187;50.492;12.134;2023-04-26T00:07:52;97463.06;;;20.36;35.23
20160;BME280;50187;50.492;12.134;2023-04-26T00:10:19;97460.53;;;20.35;35.56
20160;BME280;50187;50.492;12.134;2023-04-26T00:12:46;97463.25;;;20.35;35.50
20160;BME280;50187;50.492;12.134;2023-04-26T00:15:12;97464.25;;;20.34;35.56
20160;BME280;50187;50.492;12.134;2023-04-26T00:17:39;97465.06;;;20.34;35.38
20160;BME280;50187;50.492;12.134;2023-04-26T00:20:06;97469.66;;;20.34;35.35
20160;BME280;50187;50.492;12.134;2023-04-26T00:22:35;97467.78;;;20.34;35.35
20160;BME280;50187;50.492;12.134;2023-04-26T00:25:02;97481.28;;;20.34;35.44
20160;BME280;50187;50.492;12.134;2023-04-26T00:27:28;97465.94;;;20.35;35.59
20160;BME280;50187;50.492;12.134;2023-04-26T00:29:55;97461.53;;;20.34;35.38
20160;BME280;50187;50.492;12.134;2023-04-26T00:32:22;97465.06;;;20.34;35.33
20160;BME280;50187;50.492;12.134;2023-04-26T00:34:49;97472.34;;;20.34;35.55
20160;BME280;50187;50.492;12.134;2023-04-26T00:37:16;97472.34;;;20.34;35.55
20160;BME280;50187;50.492;12.134;2023-04-26T00:39:42;97482.28;;;20.33;35.33
20160;BME280;50187;50.492;12.134;2023-04-26T00:42:09;97478.75;;;20.33;35.39
20160;BME280;50187;50.492;12.134;2023-04-26T00:44:36;97475.38;;;20.31;35.72
20160;BME280;50187;50.492;12.134;2023-04-26T00:47:05;97485.16;;;20.32;35.66
20160;BME280;50187;50.492;12.134;2023-04-26T00:49:32;97482.47;;;20.32;35.41
20160;BME280;50187;50.492;12.134;2023-04-26T00:51:59;97480.78;;;20.31;35.59
20160;BME280;50187;50.492;12.134;2023-04-26T00:54:26;97483.50;;;20.31;35.59
20160;BME280;50187;50.492;12.134;2023-04-26T00:56:53;97481.78;;;20.30;35.46
20160;BME280;50187;50.492;12.134;2023-04-26T00:59:20;97477.38;;;20.29;35.57
20160;BME280;50187;50.492;12.134;2023-04-26T01:01:47;97487.38;;;20.28;35.34
20160;BME280;50187;50.492;12.134;2023-04-26T01:04:14;97478.25;;;20.29;35.67
20160;BME280;50187;50.492;12.134;2023-04-26T01:06:41;97485.31;;;20.30;35.52
20160;BME280;50187;50.492;12.134;2023-04-26T01:09:08;97481.78;;;20.30;35.46
20160;BME280;50187;50.492;12.134;2023-04-26T01:11:36;97484.50;;;20.30;35.34
20160;BME280;50187;50.492;12.134;2023-04-26T01:14:04;97481.78;;;20.30;35.47
20160;BME280;50187;50.492;12.134;2023-04-26T01:16:31;97484.66;;;20.28;35.73
20160;BME280;50187;50.492;12.134;2023-04-26T01:19:06;97487.38;;;20.28;35.55
20160;BME280;50187;50.492;12.134;2023-04-26T01:21:32;97475.69;;;20.28;35.56
20160;BME280;50187;50.492;12.134;2023-04-26T01:23:59;97479.44;;;20.27;35.62
20160;BME280;50187;50.492;12.134;2023-04-26T01:26:26;97476.91;;;20.25;35.47
20160;BME280;50187;50.492;12.134;2023-04-26T01:28:53;97493.94;;;20.25;35.35
20160;BME280;50187;50.492;12.134;2023-04-26T01:31:20;97478.56;;;20.26;35.63
20160;BME280;50187;50.492;12.134;2023-04-26T01:33:46;97484.81;;;20.27;35.61
20160;BME280;50187;50.492;12.134;2023-04-26T01:36:13;97479.44;;;20.27;35.43
20160;BME280;50187;50.492;12.134;2023-04-26T01:38:39;97489.19;;;20.28;35.37
20160;BME280;50187;50.492;12.134;2023-04-26T01:41:06;97492.75;;;20.28;35.46
20160;BME280;50187;50.492;12.134;2023-04-26T01:43:33;97491.06;;;20.27;35.35
20160;BME280;50187;50.492;12.134;2023-04-26T01:45:59;97498.34;;;20.27;35.50
20160;BME280;50187;50.492;12.134;2023-04-26T01:48:29;97490.41;;;20.25;35.45
20160;BME280;50187;50.492;12.134;2023-04-26T01:50:56;97489.69;;;20.23;35.56
20160;BME280;50187;50.492;12.134;2023-04-26T01:53:22;97495.28;;;20.21;35.54
20160;BME280;50187;50.492;12.134;2023-04-26T01:55:48;97499.50;;;20.24;35.64
20160;BME280;50187;50.492;12.134;2023-04-26T01:58:15;97497.81;;;20.23;35.43
20160;BME280;50187;50.492;12.134;2023-04-26T02:00:42;97504.06;;;20.23;35.44
20160;BME280;50187;50.492;12.134;2023-04-26T02:03:09;97503.03;;;20.24;35.39
20160;BME280;50187;50.492;12.134;2023-04-26T02:05:36;97505.56;;;20.26;35.61
20160;BME280;50187;50.492;12.134;2023-04-26T02:08:04;97506.28;;;20.28;35.36
20160;BME280;50187;50.492;12.134;2023-04-26T02:10:31;97506.44;;;20.27;35.55
20160;BME280;50187;50.492;12.134;2023-04-26T02:12:57;97503.03;;;20.24;35.54
20160;BME280;50187;50.492;12.134;2023-04-26T02:15:24;97498.81;;;20.22;35.52
20160;BME280;50187;50.492;12.134;2023-04-26T02:17:50;97503.38;;;20.21;35.62
20160;BME280;50187;50.492;12.134;2023-04-26T02:20:19;97499.66;;;20.22;35.59
20160;BME280;50187;50.492;12.134;2023-04-26T02:22:45;97501.19;;;20.25;35.44
20160;BME280;50187;50.492;12.134;2023-04-26T02:25:13;97490.41;;;20.25;35.56
20160;BME280;50187;50.492;12.134;2023-04-26T02:27:41;97495.97;;;20.23;35.41
20160;BME280;50187;50.492;12.134;2023-04-26T02:30:07;97495.97;;;20.23;35.45
20160;BME280;50187;50.492;12.134;2023-04-26T02:32:34;97494.28;;;20.22;35.50
20160;BME280;50187;50.492;12.134;2023-04-26T02:35:02;97492.56;;;20.21;35.33
20160;BME280;50187;50.492;12.134;2023-04-26T02:37:28;97488.34;;;20.19;35.54
20160;BME280;50187;50.492;12.134;2023-04-26T02:39:56;97491.72;;;20.21;35.69
20160;BME280;50187;50.492;12.134;2023-04-26T02:42:23;97494.28;;;20.22;35.64
20160;BME280;50187;50.492;12.134;2023-04-26T02:44:50;97490.88;;;20.20;35.51
20160;BME280;50187;50.492;12.134;2023-04-26T02:47:17;97497.81;;;20.23;35.35
20160;BME280;50187;50.492;12.134;2023-04-26T02:49:44;97495.28;;;20.21;35.35
20160;BME280;50187;50.492;12.134;2023-04-26T02:52:11;97487.16;;;20.21;35.55
20160;BME280;50187;50.492;12.134;2023-04-26T02:54:38;97494.09;;;20.24;35.65
20160;BME280;50187;50.492;12.134;2023-04-26T02:57:04;97484.28;;;20.23;35.41
20160;BME280;50187;50.492;12.134;2023-04-26T02:59:31;97483.94;;;20.18;35.73
20160;BME280;50187;50.492;12.134;2023-04-26T03:01:58;97484.97;;;20.17;35.58
20160;BME280;50187;50.492;12.134;2023-04-26T03:04:24;97484.97;;;20.17;35.43
20160;BME280;50187;50.492;12.134;2023-04-26T03:06:51;97483.09;;;20.17;35.45
20160;BME280;50187;50.492;12.134;2023-04-26T03:09:18;97481.25;;;20.18;35.43
20160;BME280;50187;50.492;12.134;2023-04-26T03:11:44;97483.81;;;20.19;35.60
20160;BME280;50187;50.492;12.134;2023-04-26T03:14:12;97485.63;;;20.19;35.57
20160;BME280;50187;50.492;12.134;2023-04-26T03:16:42;97482.09;;;20.18;35.41
20160;BME280;50187;50.492;12.134;2023-04-26T03:19:09;97485.63;;;20.19;35.41
20160;BME280;50187;50.492;12.134;2023-04-26T03:21:37;97481.41;;;20.16;35.57
20160;BME280;50187;50.492;12.134;2023-04-26T03:24:05;97485.13;;;20.15;35.38
20160;BME280;50187;50.492;12.134;2023-04-26T03:26:32;97484.97;;;20.17;35.42
20160;BME280;50187;50.492;12.134;2023-04-26T03:28:58;97488.50;;;20.17;35.47
20160;BME280;50187;50.492;12.134;2023-04-26T03:31:25;97484.97;;;20.17;35.62
20160;BME280;50187;50.492;12.134;2023-04-26T03:33:52;97483.09;;;20.17;35.42
20160;BME280;50187;50.492;12.134;2023-04-26T03:36:19;97484.09;;;20.16;35.49
20160;BME280;50187;50.492;12.134;2023-04-26T03:38:46;97482.44;;;20.15;35.46
20160;BME280;50187;50.492;12.134;2023-04-26T03:41:13;97488.66;;;20.16;35.58
20160;BME280;50187;50.492;12.134;2023-04-26T03:43:40;97495.06;;;20.15;35.58
20160;BME280;50187;50.492;12.134;2023-04-26T03:46:06;97489.84;;;20.13;35.74
20160;BME280;50187;50.492;12.134;2023-04-26T03:48:33;97499.63;;;20.14;35.62
20160;BME280;50187;50.492;12.134;2023-04-26T03:51:00;97497.78;;;20.15;35.40
20160;BME280;50187;50.492;12.134;2023-04-26T03:53:27;97501.34;;;20.15;35.57
20160;BME280;50187;50.492;12.134;2023-04-26T03:55:54;97495.25;;;20.13;35.61
20160;BME280;50187;50.492;12.134;2023-04-26T03:58:21;97509.44;;;20.15;35.54
20160;BME280;50187;50.492;12.134;2023-04-26T04:00:47;97503.19;;;20.15;35.59
20160;BME280;50187;50.492;12.134;2023-04-26T04:03:13;97509.75;;;20.12;35.58
20160;BME280;50187;50.492;12.134;2023-04-26T04:05:41;97511.44;;;20.13;35.36
20160;BME280;50187;50.492;12.134;2023-04-26T04:08:07;97504.34;;;20.12;35.51
20160;BME280;50187;50.492;12.134;2023-04-26T04:10:34;97512.31;;;20.14;35.36
20160;BME280;50187;50.492;12.134;2023-04-26T04:13:02;97512.31;;;20.14;35.33
20160;BME280;50187;50.492;12.134;2023-04-26T04:15:29;97519.38;;;20.15;35.44
20160;BME280;50187;50.492;12.134;2023-04-26T04:17:56;97517.72;;;20.14;35.50
20160;BME280;50187;50.492;12.134;2023-04-26T04:20:22;97527.66;;;20.13;35.29
20160;BME280;50187;50.492;12.134;2023-04-26T04:22:52;97531.34;;;20.12;35.60
20160;BME280;50187;50.492;12.134;2023-04-26T04:25:18;97523.25;;;20.12;35.36
20160;BME280;50187;50.492;12.134;2023-04-26T04:27:47;97534.03;;;20.12;35.55
20160;BME280;50187;50.492;12.134;2023-04-26T04:30:14;97527.66;;;20.13;35.36
20160;BME280;50187;50.492;12.134;2023-04-26T04:32:41;97528.50;;;20.14;35.49
20160;BME280;50187;50.492;12.134;2023-04-26T04:35:13;97538.28;;;20.15;35.32
20160;BME280;50187;50.492;12.134;2023-04-26T04:37:40;97541.84;;;20.15;35.48
20160;BME280;50187;50.492;12.134;2023-04-26T04:40:07;97533.03;;;20.13;35.50
20160;BME280;50187;50.492;12.134;2023-04-26T04:42:38;97535.25;;;20.10;35.39
20160;BME280;50187;50.492;12.134;2023-04-26T04:45:06;97536.75;;;20.12;35.54
20160;BME280;50187;50.492;12.134;2023-04-26T04:47:36;97544.84;;;20.12;35.34
20160;BME280;50187;50.492;12.134;2023-04-26T04:50:04;97547.56;;;20.12;35.37
20160;BME280;50187;50.492;12.134;2023-04-26T04:52:31;97550.25;;;20.12;35.51
20160;BME280;50187;50.492;12.134;2023-04-26T04:54:59;97554.66;;;20.13;35.32
20160;BME280;50187;50.492;12.134;2023-04-26T04:57:26;97546.06;;;20.10;35.21
20160;BME280;50187;50.492;12.134;2023-04-26T04:59:52;97540.59;;;20.01;35.59
20160;BME280;50187;50.492;12.134;2023-04-26T05:02:19;97552.94;;;20.12;35.58
20160;BME280;50187;50.492;12.134;2023-04-26T05:04:46;97556.03;;;20.17;35.36
20160;BME280;50187;50.492;12.134;2023-04-26T05:07:13;97557.19;;;20.15;35.46
20160;BME280;50187;50.492;12.134;2023-04-26T05:09:43;97567.69;;;20.26;35.39
20160;BME280;50187;50.492;12.134;2023-04-26T05:12:10;97566.34;;;20.30;35.39
20160;BME280;50187;50.492;12.134;2023-04-26T05:14:36;97564.84;;;20.36;35.37
20160;BME280;50187;50.492;12.134;2023-04-26T05:17:03;97568.25;;;20.38;35.24
20160;BME280;50187;50.492;12.134;2023-04-26T05:19:30;97573.16;;;20.42;35.15
20160;BME280;50187;50.492;12.134;2023-04-26T05:21:57;97569.63;;;20.42;35.04
20160;BME280;50187;50.492;12.134;2023-04-26T05:24:24;97571.13;;;20.45;35.12
20160;BME280;50187;50.492;12.134;2023-04-26T05:26:51;97567.09;;;20.40;35.17
20160;BME280;50187;50.492;12.134;2023-04-26T05:29:36;97569.63;;;20.50;35.13
20160;BME280;50187;50.492;12.134;2023-04-26T05:32:02;97572.03;;;20.53;35.12
20160;BME280;50187;50.492;12.134;2023-04-26T05:34:38;97577.25;;;20.55;34.99
20160;BME280;50187;50.492;12.134;2023-04-26T05:37:07;97578.44;;;20.52;34.99
20160;BME280;50187;50.492;12.134;2023-04-26T05:39:33;97583.31;;;20.57;34.74
20160;BME280;50187;50.492;12.134;2023-04-26T05:42:00;97583.50;;;20.55;34.81
20160;BME280;50187;50.492;12.134;2023-04-26T05:44:29;97584.84;;;20.59;34.99
20160;BME280;50187;50.492;12.134;2023-04-26T05:46:56;97594.66;;;20.61;34.84
20160;BME280;50187;50.492;12.134;2023-04-26T05:49:24;97590.97;;;20.62;34.75
20160;BME280;50187;50.492;12.134;2023-04-26T05:51:52;97599.22;;;20.60;35.01
20160;BME280;50187;50.492;12.134;2023-04-26T05:54:18;97592.97;;;20.59;34.84
20160;BME280;50187;50.492;12.134;2023-04-26T05:56:45;97604.63;;;20.60;34.83
20160;BME280;50187;50.492;12.134;2023-04-26T05:59:11;97600.91;;;20.61;34.91
20160;BME280;50187;50.492;12.134;2023-04-26T06:01:39;97602.78;;;20.61;35.03
20160;BME280;50187;50.492;12.134;2023-04-26T06:04:05;97591.09;;;20.60;34.95
20160;BME280;50187;50.492;12.134;2023-04-26T06:06:43;97594.66;;;20.61;35.00
20160;BME280;50187;50.492;12.134;2023-04-26T06:09:09;97591.09;;;20.60;34.78
20160;BME280;50187;50.492;12.134;2023-04-26T06:11:36;97577.72;;;20.50;35.06
20160;BME280;50187;50.492;12.134;2023-04-26T06:14:02;97591.25;;;20.58;35.12
20160;BME280;50187;50.492;12.134;2023-04-26T06:16:29;97590.25;;;20.59;34.86
20160;BME280;50187;50.492;12.134;2023-04-26T06:18:56;97593.31;;;20.56;34.96
20160;BME280;50187;50.492;12.134;2023-04-26T06:21:23;97612.59;;;20.62;35.05
20160;BME280;50187;50.492;12.134;2023-04-26T06:23:50;97593.66;;;20.62;34.84
20160;BME280;50187;50.492;12.134;2023-04-26T06:26:18;97586.56;;;20.61;34.91
20160;BME280;50187;50.492;12.134;2023-04-26T06:28:45;97590.97;;;20.62;34.99
20160;BME280;50187;50.492;12.134;2023-04-26T06:31:12;97589.09;;;20.62;34.96
20160;BME280;50187;50.492;12.134;2023-04-26T06:33:39;97594.34;;;20.64;34.91
20160;BME280;50187;50.492;12.134;2023-04-26T06:36:10;97604.16;;;20.65;35.03
20160;BME280;50187;50.492;12.134;2023-04-26T06:38:38;97597.03;;;20.64;34.94
20160;BME280;50187;50.492;12.134;2023-04-26T06:41:05;97593.81;;;20.60;35.12
20160;BME280;50187;50.492;12.134;2023-04-26T06:43:33;97593.97;;;20.58;35.12
20160;BME280;50187;50.492;12.134;2023-04-26T06:46:05;97597.22;;;20.62;34.93
20160;BME280;50187;50.492;12.134;2023-04-26T06:48:32;97596.88;;;20.65;34.99
20160;BME280;50187;50.492;12.134;2023-04-26T06:51:04;97603.09;;;20.66;34.90
20160;BME280;50187;50.492;12.134;2023-04-26T06:53:30;97601.13;;;20.68;34.86
20160;BME280;50187;50.492;12.134;2023-04-26T06:55:57;97603.84;;;20.68;34.92
20160;BME280;50187;50.492;12.134;2023-04-26T06:58:23;97602.50;;;20.72;35.00
20160;BME280;50187;50.492;12.134;2023-04-26T07:00:50;97596.94;;;20.73;34.81
20160;BME280;50187;50.492;12.134;2023-04-26T07:03:16;97595.75;;;20.76;34.69
20160;BME280;50187;50.492;12.134;2023-04-26T07:05:43;97603.53;;;20.79;34.86
20160;BME280;50187;50.492;12.134;2023-04-26T07:08:09;97598.13;;;20.79;34.94
20160;BME280;50187;50.492;12.134;2023-04-26T07:10:40;97604.88;;;20.83;34.90
20160;BME280;50187;50.492;12.134;2023-04-26T07:13:06;97608.44;;;20.84;34.92
20160;BME280;50187;50.492;12.134;2023-04-26T07:15:35;97607.09;;;20.88;34.73
20160;BME280;50187;50.492;12.134;2023-04-26T07:18:01;97605.25;;;20.88;34.73
20160;BME280;50187;50.492;12.134;2023-04-26T07:20:28;97609.78;;;20.88;34.74
20160;BME280;50187;50.492;12.134;2023-04-26T07:22:54;97597.97;;;20.89;34.87
20160;BME280;50187;50.492;12.134;2023-04-26T07:25:21;97601.34;;;20.91;34.72
20160;BME280;50187;50.492;12.134;2023-04-26T07:27:47;97605.56;;;20.93;34.66
20160;BME280;50187;50.492;12.134;2023-04-26T07:30:16;97596.09;;;20.89;34.74
20160;BME280;50187;50.492;12.134;2023-04-26T07:32:43;97609.16;;;20.94;34.67
20160;BME280;50187;50.492;12.134;2023-04-26T07:35:10;97603.22;;;20.90;34.65
20160;BME280;50187;50.492;12.134;2023-04-26T07:37:42;97618.75;;;20.88;34.75
20160;BME280;50187;50.492;12.134;2023-04-26T07:40:10;97620.78;;;20.86;34.87
20160;BME280;50187;50.492;12.134;2023-04-26T07:42:37;97611.31;;;20.82;34.94
20160;BME280;50187;50.492;12.134;2023-04-26T07:45:03;97613.34;;;20.80;35.13
20160;BME280;50187;50.492;12.134;2023-04-26T07:47:30;97612.63;;;20.78;35.08
20160;BME280;50187;50.492;12.134;2023-04-26T07:49:56;97611.47;;;20.81;34.94
20160;BME280;50187;50.492;12.134;2023-04-26T07:52:23;97609.78;;;20.80;35.01
20160;BME280;50187;50.492;12.134;2023-04-26T07:54:49;97611.63;;;20.79;34.87
20160;BME280;50187;50.492;12.134;2023-04-26T07:57:16;97613.63;;;20.77;34.89
20160;BME280;50187;50.492;12.134;2023-04-26T07:59:43;97613.81;;;20.75;35.10
20160;BME280;50187;50.492;12.134;2023-04-26T08:02:09;97616.00;;;20.72;34.99
20160;BME280;50187;50.492;12.134;2023-04-26T08:04:36;97623.25;;;20.71;35.16
20160;BME280;50187;50.492;12.134;2023-04-26T08:07:03;97618.88;;;20.70;35.22
20160;BME280;50187;50.492;12.134;2023-04-26T08:09:29;97612.91;;;20.67;35.13
20160;BME280;50187;50.492;12.134;2023-04-26T08:11:56;97624.47;;;20.69;35.20
20160;BME280;50187;50.492;12.134;2023-04-26T08:14:23;97633.41;;;20.69;35.17
20160;BME280;50187;50.492;12.134;2023-04-26T08:16:49;97618.53;;;20.73;34.87
20160;BME280;50187;50.492;12.134;2023-04-26T08:19:16;97622.44;;;20.79;35.04
20160;BME280;50187;50.492;12.134;2023-04-26T08:21:43;97629.38;;;20.82;35.02
20160;BME280;50187;50.492;12.134;2023-04-26T08:24:09;97623.97;;;20.82;34.76
20160;BME280;50187;50.492;12.134;2023-04-26T08:26:36;97623.44;;;20.78;34.93
20160;BME280;50187;50.492;12.134;2023-04-26T08:29:02;97622.78;;;20.76;34.95
20160;BME280;50187;50.492;12.134;2023-04-26T08:31:29;97638.13;;;20.75;35.00
20160;BME280;50187;50.492;12.134;2023-04-26T08:33:55;97632.91;;;20.74;34.97
20160;BME280;50187;50.492;12.134;2023-04-26T08:36:22;97639.34;;;20.73;35.20
20160;BME280;50187;50.492;12.134;2023-04-26T08:38:48;97629.03;;;20.76;35.10
20160;BME280;50187;50.492;12.134;2023-04-26T08:41:20;97630.91;;;20.84;34.86
20160;BME280;50187;50.492;12.134;2023-04-26T08:43:48;97632.59;;;20.93;35.00
20160;BME280;50187;50.492;12.134;2023-04-26T08:46:18;97635.69;;;20.99;34.79
20160;BME280;50187;50.492;12.134;2023-04-26T08:48:48;97641.25;;;20.97;34.83
20160;BME280;50187;50.492;12.134;2023-04-26T08:51:18;97635.31;;;20.93;34.87
20160;BME280;50187;50.492;12.134;2023-04-26T08:53:46;97635.81;;;20.89;34.78
20160;BME280;50187;50.492;12.134;2023-04-26T08:56:13;97644.09;;;20.87;34.82
20160;BME280;50187;50.492;12.134;2023-04-26T08:58:39;97636.50;;;20.91;34.64
20160;BME280;50187;50.492;12.134;2023-04-26T09:01:07;97635.69;;;20.99;34.71
20160;BME280;50187;50.492;12.134;2023-04-26T09:03:34;97629.94;;;21.02;34.82
20160;BME280;50187;50.492;12.134;2023-04-26T09:06:02;97633.28;;;21.04;34.66
20160;BME280;50187;50.492;12.134;2023-04-26T09:08:33;97636.16;;;21.02;34.87
20160;BME280;50187;50.492;12.134;2023-04-26T09:11:02;97628.41;;;20.99;34.62
20160;BME280;50187;50.492;12.134;2023-04-26T09:13:28;97632.28;;;20.97;34.83
20160;BME280;50187;50.492;12.134;2023-04-26T09:15:55;97628.91;;;20.95;34.96
20160;BME280;50187;50.492;12.134;2023-04-26T09:18:22;97633.94;;;20.89;34.97
20160;BME280;50187;50.492;12.134;2023-04-26T09:21:05;97627.19;;;20.85;34.88
20160;BME280;50187;50.492;12.134;2023-04-26T09:23:33;97625.50;;;20.84;35.13
20160;BME280;50187;50.492;12.134;2023-04-26T09:26:19;97624.00;;;20.90;34.76
20160;BME280;50187;50.492;12.134;2023-04-26T09:28:46;97630.78;;;20.94;34.88
20160;BME280;50187;50.492;12.134;2023-04-26T09:31:37;97629.06;;;20.93;34.82
20160;BME280;50187;50.492;12.134;2023-04-26T09:34:04;97628.38;;;20.91;34.82
20160;BME280;50187;50.492;12.134;2023-04-26T09:36:31;97630.41;;;20.89;34.82
20160;BME280;50187;50.492;12.134;2023-04-26T09:41:41;97635.81;;;20.81;35.25
20160;BME280;50187;50.492;12.134;2023-04-26T09:44:20;97644.06;;;20.79;35.27
20160;BME280;50187;50.492;12.134;2023-04-26T09:47:04;97638.16;;;20.84;35.04
20160;BME280;50187;50.492;12.134;2023-04-26T09:49:43;97637.69;;;20.88;34.94
20160;BME280;50187;50.492;12.134;2023-04-26T09:52:10;97634.31;;;20.95;34.90
20160;BME280;50187;50.492;12.134;2023-04-26T09:54:43;97632.44;;;20.95;34.70
20160;BME280;50187;50.492;12.134;2023-04-26T09:57:11;97630.91;;;20.92;34.99
20160;BME280;50187;50.492;12.134;2023-04-26T09:59:49;97637.34;;;20.91;34.75
20160;BME280;50187;50.492;12.134;2023-04-26T10:02:25;97636.81;;;20.88;34.90
20160;BME280;50187;50.492;12.134;2023-04-26T10:04:54;97627.19;;;20.85;34.93
20160;BME280;50187;50.492;12.134;2023-04-26T10:07:22;97634.28;;;20.86;34.89
20160;BME280;50187;50.492;12.134;2023-04-26T10:12:18;97624.47;;;20.85;35.02
20160;BME280;50187;50.492;12.134;2023-04-26T10:14:45;97627.19;;;20.85;35.11
20160;BME280;50187;50.492;12.134;2023-04-26T10:17:12;97631.25;;;20.89;34.89
20160;BME280;50187;50.492;12.134;2023-04-26T10:19:41;97621.13;;;20.91;34.92
20160;BME280;50187;50.492;12.134;2023-04-26T10:22:26;97629.25;;;20.91;34.86
20160;BME280;50187;50.492;12.134;2023-04-26T10:24:54;97629.41;;;20.90;34.97
20160;BME280;50187;50.492;12.134;2023-04-26T10:30:28;97630.59;;;20.87;35.05
20160;BME280;50187;50.492;12.134;2023-04-26T10:35:25;97616.38;;;20.93;34.77
20160;BME280;50187;50.492;12.134;2023-04-26T10:40:34;97621.78;;;20.93;34.80
20160;BME280;50187;50.492;12.134;2023-04-26T10:45:35;97618.41;;;20.83;34.90
20160;BME280;50187;50.492;12.134;2023-04-26T10:48:22;97621.28;;;20.82;35.04
20160;BME280;50187;50.492;12.134;2023-04-26T10:53:31;97627.16;;;20.77;35.13
20160;BME280;50187;50.492;12.134;2023-04-26T10:55:58;97626.50;;;20.75;35.22
20160;BME280;50187;50.492;12.134;2023-04-26T10:58:32;97618.03;;;20.70;35.32
20160;BME280;50187;50.492;12.134;2023-04-26T11:01:14;97622.41;;;20.71;35.19
20160;BME280;50187;50.492;12.134;2023-04-26T11:06:26;97616.00;;;20.72;35.36
20160;BME280;50187;50.492;12.134;2023-04-26T11:11:57;97605.19;;;20.72;35.12
20160;BME280;50187;50.492;12.134;2023-04-26T11:14:24;97609.28;;;20.76;35.10
20160;BME280;50187;50.492;12.134;2023-04-26T11:16:51;97606.91;;;20.73;35.13
20160;BME280;50187;50.492;12.134;2023-04-26T11:19:18;97604.69;;;20.76;35.02
20160;BME280;50187;50.492;12.134;2023-04-26T11:21:44;97599.66;;;20.82;35.27
20160;BME280;50187;50.492;12.134;2023-04-26T11:24:14;97594.56;;;20.87;34.95
20160;BME280;50187;50.492;12.134;2023-04-26T11:26:40;97593.41;;;20.89;35.06
20160;BME280;50187;50.492;12.134;2023-04-26T11:29:07;97601.34;;;20.91;35.15
20160;BME280;50187;50.492;12.134;2023-04-26T11:31:35;97598.81;;;20.89;34.83
20160;BME280;50187;50.492;12.134;2023-04-26T11:34:05;97594.56;;;20.87;34.98
20160;BME280;50187;50.492;12.134;2023-04-26T11:36:31;97599.47;;;20.83;34.96
20160;BME280;50187;50.492;12.134;2023-04-26T11:38:59;97605.06;;;20.82;35.09
20160;BME280;50187;50.492;12.134;2023-04-26T11:41:27;97587.47;;;20.78;35.06
20160;BME280;50187;50.492;12.134;2023-04-26T11:43:54;97597.59;;;20.75;35.12
20160;BME280;50187;50.492;12.134;2023-04-26T11:46:21;97595.56;;;20.69;35.26
20160;BME280;50187;50.492;12.134;2023-04-26T11:48:49;97601.97;;;20.68;35.45
20160;BME280;50187;50.492;12.134;2023-04-26T11:51:17;97592.31;;;20.66;35.34
20160;BME280;50187;50.492;12.134;2023-04-26T11:53:44;97601.13;;;20.68;35.38
20160;BME280;50187;50.492;12.134;2023-04-26T11:56:17;97598.56;;;20.66;35.25
20160;BME280;50187;50.492;12.134;2023-04-26T11:58:48;97600.41;;;20.66;35.32
20160;BME280;50187;50.492;12.134;2023-04-26T12:01:27;97592.31;;;20.66;35.40
20160;BME280;50187;50.492;12.134;2023-04-26T12:03:57;97593.50;;;20.63;35.35
20160;BME280;50187;50.492;12.134;2023-04-26T12:06:40;97592.63;;;20.63;35.53
20160;BME280;50187;50.492;12.134;2023-04-26T12:09:07;97591.97;;;20.61;35.38
20160;BME280;50187;50.492;12.134;2023-04-26T12:11:38;97583.00;;;20.60;35.32
20160;BME280;50187;50.492;12.134;2023-04-26T12:14:04;97592.63;;;20.63;35.33
20160;BME280;50187;50.492;12.134;2023-04-26T12:16:35;97593.66;;;20.62;35.47
20160;BME280;50187;50.492;12.134;2023-04-26T12:19:04;97593.81;;;20.60;35.26
20160;BME280;50187;50.492;12.134;2023-04-26T12:21:41;97593.97;;;20.58;35.42
20160;BME280;50187;50.492;12.134;2023-04-26T12:24:21;97593.97;;;20.58;35.40
20160;BME280;50187;50.492;12.134;2023-04-26T12:26:47;97595.50;;;20.61;35.54
20160;BME280;50187;50.492;12.134;2023-04-26T12:29:14;97586.72;;;20.59;35.49
20160;BME280;50187;50.492;12.134;2023-04-26T12:31:41;97592.81;;;20.61;35.47
20160;BME280;50187;50.492;12.134;2023-04-26T12:34:08;97591.09;;;20.60;35.42
20160;BME280;50187;50.492;12.134;2023-04-26T12:36:35;97586.56;;;20.61;35.36
20160;BME280;50187;50.492;12.134;2023-04-26T12:39:01;97586.91;;;20.57;35.30
20160;BME280;50187;50.492;12.134;2023-04-26T12:41:30;97595.66;;;20.59;35.44
20160;BME280;50187;50.492;12.134;2023-04-26T12:43:57;97591.09;;;20.60;35.29
20160;BME280;50187;50.492;12.134;2023-04-26T12:46:23;97589.25;;;20.61;35.30
20160;BME280;50187;50.492;12.134;2023-04-26T12:48:51;97583.84;;;20.61;35.33
20160;BME280;50187;50.492;12.134;2023-04-26T12:51:18;97584.84;;;20.59;35.44
20160;BME280;50187;50.492;12.134;2023-04-26T12:53:44;97580.16;;;20.62;35.39
20160;BME280;50187;50.492;12.134;2023-04-26T12:56:11;97580.28;;;20.60;35.15
20160;BME280;50187;50.492;12.134;2023-04-26T12:58:37;97582.53;;;20.65;35.24
20160;BME280;50187;50.492;12.134;2023-04-26T13:01:04;97586.06;;;20.65;35.24
20160;BME280;50187;50.492;12.134;2023-04-26T13:03:30;97575.25;;;20.65;35.25
20160;BME280;50187;50.492;12.134;2023-04-26T13:05:57;97583.53;;;20.64;35.30
20160;BME280;50187;50.492;12.134;2023-04-26T13:08:24;97586.22;;;20.64;35.44
20160;BME280;50187;50.492;12.134;2023-04-26T13:10:50;97583.53;;;20.64;35.14
20160;BME280;50187;50.492;12.134;2023-04-26T13:13:17;97581.16;;;20.61;35.41
20160;BME280;50187;50.492;12.134;2023-04-26T13:15:46;97589.25;;;20.61;35.31
20160;BME280;50187;50.492;12.134;2023-04-26T13:18:12;97587.56;;;20.59;35.31